sensor_id;sensor_type;location;lat;lon;timestamp;temperature;humidity
21570;DHT22;57598;50.888;4.746;2023-04-15T00:01:53;10.20;99.90
21570;DHT22;57598;50.888;4.746;2023-04-15T00:04:20;10.20;99.90
21570;DHT22;57598;50.888;4.746;2023-04-15T00:06:50;10.10;99.90
21570;DHT22;57598;50.888;4.746;2023-04-15T00:09:19;10.00;99.90
21570;DHT22;57598;50.888;4.746;2023-04-15T00:11:47;10.10;99.90
21570;DHT22;57598;50.888;4.746;2023-04-15T00:14:15;10.10;99.90
21570;DHT22;57598;50.888;4.746;2023-04-15T00:16:43;10.10;99.90
21570;DHT22;57598;50.888;4.746;2023-04-15T00:19:10;10.10;99.90
21570;DHT22;57598;50.888;4.746;2023-04-15T00:21:38;10.10;99.90
21570;DHT22;57598;50.888;4.746;2023-04-15T00:24:05;10.20;99.90
21570;DHT22;57598;50.888;4.746;2023-04-15T00:26:32;10.20;99.90
21570;DHT22;57598;50.888;4.746;2023-04-15T00:29:00;10.20;99.90
21570;DHT22;57598;50.888;4.746;2023-04-15T00:31:27;10.20;99.90
21570;DHT22;57598;50.888;4.746;2023-04-15T00:33:56;10.20;99.90
21570;DHT22;57598;50.888;4.746;2023-04-15T00:36:23;10.20;99.90
21570;DHT22;57598;50.888;4.746;2023-04-15T00:38:51;10.20;99.90
21570;DHT22;57598;50.888;4.746;2023-04-15T00:41:18;10.40;99.90
21570;DHT22;57598;50.888;4.746;2023-04-15T00:43:47;10.40;99.90
21570;DHT22;57598;50.888;4.746;2023-04-15T00:46:15;10.40;99.90
21570;DHT22;57598;50.888;4.746;2023-04-15T00:48:44;10.50;99.90
21570;DHT22;57598;50.888;4.746;2023-04-15T00:51:13;10.40;99.90
21570;DHT22;57598;50.888;4.746;2023-04-15T00:53:40;10.30;99.90
21570;DHT22;57598;50.888;4.746;2023-04-15T00:56:08;10.20;99.90
21570;DHT22;57598;50.888;4.746;2023-04-15T00:58:35;10.30;99.90
21570;DHT22;57598;50.888;4.746;2023-04-15T01:01:03;10.30;99.90
21570;DHT22;57598;50.888;4.746;2023-04-15T01:03:31;10.20;99.90
21570;DHT22;57598;50.888;4.746;2023-04-15T01:06:01;10.20;99.90
21570;DHT22;57598;50.888;4.746;2023-04-15T01:08:30;10.20;99.90
21570;DHT22;57598;50.888;4.746;2023-04-15T01:10:58;10.30;99.90
21570;DHT22;57598;50.888;4.746;2023-04-15T01:13:28;10.50;99.90
21570;DHT22;57598;50.888;4.746;2023-04-15T01:15:57;10.40;99.90
21570;DHT22;57598;50.888;4.746;2023-04-15T01:18:24;10.50;99.90
21570;DHT22;57598;50.888;4.746;2023-04-15T01:20:52;10.50;99.90
21570;DHT22;57598;50.888;4.746;2023-04-15T01:23:20;10.60;99.90
21570;DHT22;57598;50.888;4.746;2023-04-15T01:25:49;10.50;99.90
21570;DHT22;57598;50.888;4.746;2023-04-15T01:28:17;10.60;99.90
21570;DHT22;57598;50.888;4.746;2023-04-15T01:30:45;10.50;99.90
21570;DHT22;57598;50.888;4.746;2023-04-15T01:33:12;10.50;99.90
21570;DHT22;57598;50.888;4.746;2023-04-15T01:35:39;10.40;99.90
21570;DHT22;57598;50.888;4.746;2023-04-15T01:38:11;10.40;99.90
21570;DHT22;57598;50.888;4.746;2023-04-15T01:40:38;10.40;99.90
21570;DHT22;57598;50.888;4.746;2023-04-15T01:43:06;10.40;99.90
21570;DHT22;57598;50.888;4.746;2023-04-15T01:45:33;10.30;99.90
21570;DHT22;57598;50.888;4.746;2023-04-15T01:48:00;10.40;99.90
21570;DHT22;57598;50.888;4.746;2023-04-15T01:50:27;10.40;99.90
21570;DHT22;57598;50.888;4.746;2023-04-15T01:52:54;10.50;99.90
21570;DHT22;57598;50.888;4.746;2023-04-15T01:55:21;10.50;99.90
21570;DHT22;57598;50.888;4.746;2023-04-15T01:57:48;10.40;99.90
21570;DHT22;57598;50.888;4.746;2023-04-15T02:00:21;10.30;99.90
21570;DHT22;57598;50.888;4.746;2023-04-15T02:02:48;10.30;99.90
21570;DHT22;57598;50.888;4.746;2023-04-15T02:05:16;10.40;99.90
21570;DHT22;57598;50.888;4.746;2023-04-15T02:07:43;10.30;99.90
21570;DHT22;57598;50.888;4.746;2023-04-15T02:10:11;10.20;99.90
21570;DHT22;57598;50.888;4.746;2023-04-15T02:12:38;10.20;99.90
21570;DHT22;57598;50.888;4.746;2023-04-15T02:15:15;10.30;99.90
21570;DHT22;57598;50.888;4.746;2023-04-15T02:17:43;10.20;99.90
21570;DHT22;57598;50.888;4.746;2023-04-15T02:20:15;10.30;99.90
21570;DHT22;57598;50.888;4.746;2023-04-15T02:22:43;10.20;99.90
21570;DHT22;57598;50.888;4.746;2023-04-15T02:25:10;10.30;99.90
21570;DHT22;57598;50.888;4.746;2023-04-15T02:27:38;10.30;99.90
21570;DHT22;57598;50.888;4.746;2023-04-15T02:30:06;10.30;99.90
21570;DHT22;57598;50.888;4.746;2023-04-15T02:32:34;10.30;99.90
21570;DHT22;57598;50.888;4.746;2023-04-15T02:35:05;10.20;99.90
21570;DHT22;57598;50.888;4.746;2023-04-15T02:37:35;10.20;99.90
21570;DHT22;57598;50.888;4.746;2023-04-15T02:40:07;10.20;99.90
21570;DHT22;57598;50.888;4.746;2023-04-15T02:42:38;10.20;99.90
21570;DHT22;57598;50.888;4.746;2023-04-15T02:45:06;10.20;99.90
21570;DHT22;57598;50.888;4.746;2023-04-15T02:47:33;10.20;99.90
21570;DHT22;57598;50.888;4.746;2023-04-15T02:50:02;10.20;99.90
21570;DHT22;57598;50.888;4.746;2023-04-15T02:52:31;10.20;99.90
21570;DHT22;57598;50.888;4.746;2023-04-15T02:54:58;10.20;99.90
21570;DHT22;57598;50.888;4.746;2023-04-15T02:57:27;10.10;99.90
21570;DHT22;57598;50.888;4.746;2023-04-15T02:59:55;10.10;99.90
21570;DHT22;57598;50.888;4.746;2023-04-15T03:02:22;10.00;99.90
21570;DHT22;57598;50.888;4.746;2023-04-15T03:04:50;10.10;99.90
21570;DHT22;57598;50.888;4.746;2023-04-15T03:07:17;10.10;99.90
21570;DHT22;57598;50.888;4.746;2023-04-15T03:09:45;10.00;99.90
21570;DHT22;57598;50.888;4.746;2023-04-15T03:12:13;10.00;99.90
21570;DHT22;57598;50.888;4.746;2023-04-15T03:14:40;10.00;99.90
21570;DHT22;57598;50.888;4.746;2023-04-15T03:17:07;10.00;99.90
21570;DHT22;57598;50.888;4.746;2023-04-15T03:19:34;10.00;99.90
21570;DHT22;57598;50.888;4.746;2023-04-15T03:22:02;10.00;99.90
21570;DHT22;57598;50.888;4.746;2023-04-15T03:24:29;9.90;99.90
21570;DHT22;57598;50.888;4.746;2023-04-15T03:26:58;9.90;99.90
21570;DHT22;57598;50.888;4.746;2023-04-15T03:29:26;9.90;99.90
21570;DHT22;57598;50.888;4.746;2023-04-15T03:31:52;9.90;99.90
21570;DHT22;57598;50.888;4.746;2023-04-15T03:34:20;9.80;99.90
21570;DHT22;57598;50.888;4.746;2023-04-15T03:36:47;9.70;99.90
21570;DHT22;57598;50.888;4.746;2023-04-15T03:39:14;9.80;99.90
21570;DHT22;57598;50.888;4.746;2023-04-15T03:41:41;9.80;99.90
21570;DHT22;57598;50.888;4.746;2023-04-15T03:44:10;9.60;99.90
21570;DHT22;57598;50.888;4.746;2023-04-15T03:46:37;9.60;99.90
21570;DHT22;57598;50.888;4.746;2023-04-15T03:49:05;9.50;99.90
21570;DHT22;57598;50.888;4.746;2023-04-15T03:51:33;9.40;99.90
21570;DHT22;57598;50.888;4.746;2023-04-15T03:54:00;9.50;99.90
21570;DHT22;57598;50.888;4.746;2023-04-15T03:56:28;9.50;99.90
21570;DHT22;57598;50.888;4.746;2023-04-15T03:58:55;9.60;99.90
21570;DHT22;57598;50.888;4.746;2023-04-15T04:01:23;9.60;99.90
21570;DHT22;57598;50.888;4.746;2023-04-15T04:03:51;9.50;99.90
21570;DHT22;57598;50.888;4.746;2023-04-15T04:06:20;9.60;99.90
21570;DHT22;57598;50.888;4.746;2023-04-15T04:08:47;9.60;99.90
21570;DHT22;57598;50.888;4.746;2023-04-15T04:11:14;9.70;99.90
21570;DHT22;57598;50.888;4.746;2023-04-15T04:13:41;9.70;99.90
21570;DHT22;57598;50.888;4.746;2023-04-15T04:16:08;9.70;99.90
21570;DHT22;57598;50.888;4.746;2023-04-15T04:18:37;9.70;99.90
21570;DHT22;57598;50.888;4.746;2023-04-15T04:21:04;9.70;99.90
21570;DHT22;57598;50.888;4.746;2023-04-15T04:23:31;9.60;99.90
21570;DHT22;57598;50.888;4.746;2023-04-15T04:25:58;9.60;99.90
21570;DHT22;57598;50.888;4.746;2023-04-15T04:28:26;9.60;99.90
21570;DHT22;57598;50.888;4.746;2023-04-15T04:30:53;9.60;99.90
21570;DHT22;57598;50.888;4.746;2023-04-15T04:33:20;9.60;99.90
21570;DHT22;57598;50.888;4.746;2023-04-15T04:35:48;9.50;99.90
21570;DHT22;57598;50.888;4.746;2023-04-15T04:38:15;9.60;99.90
21570;DHT22;57598;50.888;4.746;2023-04-15T04:40:42;9.50;99.90
21570;DHT22;57598;50.888;4.746;2023-04-15T04:43:09;9.60;99.90
21570;DHT22;57598;50.888;4.746;2023-04-15T04:45:36;9.50;99.90
21570;DHT22;57598;50.888;4.746;2023-04-15T04:48:03;9.50;99.90
21570;DHT22;57598;50.888;4.746;2023-04-15T04:50:31;9.50;99.90
21570;DHT22;57598;50.888;4.746;2023-04-15T04:53:00;9.50;99.90
21570;DHT22;57598;50.888;4.746;2023-04-15T04:55:27;9.50;99.90
21570;DHT22;57598;50.888;4.746;2023-04-15T04:57:54;9.40;99.90
21570;DHT22;57598;50.888;4.746;2023-04-15T05:00:21;9.50;99.90
21570;DHT22;57598;50.888;4.746;2023-04-15T05:02:49;9.40;99.90
21570;DHT22;57598;50.888;4.746;2023-04-15T05:05:16;9.50;99.90
21570;DHT22;57598;50.888;4.746;2023-04-15T05:07:43;9.50;99.90
21570;DHT22;57598;50.888;4.746;2023-04-15T05:10:16;9.40;99.90
21570;DHT22;57598;50.888;4.746;2023-04-15T05:12:45;9.40;99.90
21570;DHT22;57598;50.888;4.746;2023-04-15T05:15:12;9.40;99.90
21570;DHT22;57598;50.888;4.746;2023-04-15T05:17:39;9.40;99.90
21570;DHT22;57598;50.888;4.746;2023-04-15T05:20:07;9.40;99.90
21570;DHT22;57598;50.888;4.746;2023-04-15T05:22:35;9.50;99.90
21570;DHT22;57598;50.888;4.746;2023-04-15T05:25:03;9.50;99.90
21570;DHT22;57598;50.888;4.746;2023-04-15T05:27:39;9.60;99.90
21570;DHT22;57598;50.888;4.746;2023-04-15T05:30:07;9.60;99.90
21570;DHT22;57598;50.888;4.746;2023-04-15T05:32:34;9.60;99.90
21570;DHT22;57598;50.888;4.746;2023-04-15T05:35:01;9.60;99.90
21570;DHT22;57598;50.888;4.746;2023-04-15T05:37:29;9.60;99.90
21570;DHT22;57598;50.888;4.746;2023-04-15T05:39:56;9.50;99.90
21570;DHT22;57598;50.888;4.746;2023-04-15T05:42:23;9.60;99.90
21570;DHT22;57598;50.888;4.746;2023-04-15T05:44:51;9.70;99.90
21570;DHT22;57598;50.888;4.746;2023-04-15T05:47:19;9.70;99.90
21570;DHT22;57598;50.888;4.746;2023-04-15T05:49:46;9.70;99.90
21570;DHT22;57598;50.888;4.746;2023-04-15T05:52:13;9.80;99.90
21570;DHT22;57598;50.888;4.746;2023-04-15T05:54:41;9.80;99.90
21570;DHT22;57598;50.888;4.746;2023-04-15T05:57:08;9.90;99.90
21570;DHT22;57598;50.888;4.746;2023-04-15T05:59:35;9.80;99.90
21570;DHT22;57598;50.888;4.746;2023-04-15T06:02:04;9.80;99.90
21570;DHT22;57598;50.888;4.746;2023-04-15T06:04:32;9.90;99.90
21570;DHT22;57598;50.888;4.746;2023-04-15T06:06:59;9.90;99.90
21570;DHT22;57598;50.888;4.746;2023-04-15T06:09:26;10.00;99.90
21570;DHT22;57598;50.888;4.746;2023-04-15T06:11:53;10.10;99.90
21570;DHT22;57598;50.888;4.746;2023-04-15T06:14:24;10.00;99.90
21570;DHT22;57598;50.888;4.746;2023-04-15T06:16:53;10.10;99.90
21570;DHT22;57598;50.888;4.746;2023-04-15T06:19:21;10.20;99.90
21570;DHT22;57598;50.888;4.746;2023-04-15T06:21:49;10.20;99.90
21570;DHT22;57598;50.888;4.746;2023-04-15T06:24:16;10.20;99.90
21570;DHT22;57598;50.888;4.746;2023-04-15T06:26:43;10.30;99.90
21570;DHT22;57598;50.888;4.746;2023-04-15T06:29:10;10.30;99.90
21570;DHT22;57598;50.888;4.746;2023-04-15T06:31:37;10.30;99.90
21570;DHT22;57598;50.888;4.746;2023-04-15T06:34:04;10.50;99.90
21570;DHT22;57598;50.888;4.746;2023-04-15T06:36:32;10.50;99.90
21570;DHT22;57598;50.888;4.746;2023-04-15T06:38:59;10.40;99.90
21570;DHT22;57598;50.888;4.746;2023-04-15T06:41:27;10.40;99.90
21570;DHT22;57598;50.888;4.746;2023-04-15T06:43:54;10.50;99.90
21570;DHT22;57598;50.888;4.746;2023-04-15T06:46:21;10.70;99.90
21570;DHT22;57598;50.888;4.746;2023-04-15T06:48:48;10.80;99.90
21570;DHT22;57598;50.888;4.746;2023-04-15T06:51:15;11.00;99.90
21570;DHT22;57598;50.888;4.746;2023-04-15T06:53:44;11.10;99.90
21570;DHT22;57598;50.888;4.746;2023-04-15T06:56:10;11.30;99.90
21570;DHT22;57598;50.888;4.746;2023-04-15T06:58:38;11.40;99.90
21570;DHT22;57598;50.888;4.746;2023-04-15T07:01:05;11.50;99.90
21570;DHT22;57598;50.888;4.746;2023-04-15T07:03:32;11.90;99.90
21570;DHT22;57598;50.888;4.746;2023-04-15T07:05:59;12.00;99.90
21570;DHT22;57598;50.888;4.746;2023-04-15T07:08:30;12.10;99.90
21570;DHT22;57598;50.888;4.746;2023-04-15T07:10:59;12.20;99.90
21570;DHT22;57598;50.888;4.746;2023-04-15T07:13:28;12.70;99.90
21570;DHT22;57598;50.888;4.746;2023-04-15T07:15:56;13.20;99.90
21570;DHT22;57598;50.888;4.746;2023-04-15T07:18:22;13.60;99.90
21570;DHT22;57598;50.888;4.746;2023-04-15T07:20:50;13.90;99.90
21570;DHT22;57598;50.888;4.746;2023-04-15T07:23:17;14.30;99.90
21570;DHT22;57598;50.888;4.746;2023-04-15T07:25:44;14.70;99.90
21570;DHT22;57598;50.888;4.746;2023-04-15T07:28:13;15.10;99.90
21570;DHT22;57598;50.888;4.746;2023-04-15T07:30:40;15.00;99.70
21570;DHT22;57598;50.888;4.746;2023-04-15T07:33:07;15.30;99.40
21570;DHT22;57598;50.888;4.746;2023-04-15T07:35:34;15.30;98.40
21570;DHT22;57598;50.888;4.746;2023-04-15T07:38:01;15.50;97.80
21570;DHT22;57598;50.888;4.746;2023-04-15T07:40:28;15.70;98.60
21570;DHT22;57598;50.888;4.746;2023-04-15T07:42:55;15.70;97.50
21570;DHT22;57598;50.888;4.746;2023-04-15T07:45:24;16.60;96.50
21570;DHT22;57598;50.888;4.746;2023-04-15T07:47:51;16.70;94.50
21570;DHT22;57598;50.888;4.746;2023-04-15T07:50:20;16.90;93.30
21570;DHT22;57598;50.888;4.746;2023-04-15T07:52:48;17.00;92.60
21570;DHT22;57598;50.888;4.746;2023-04-15T07:55:16;16.70;92.30
21570;DHT22;57598;50.888;4.746;2023-04-15T07:57:44;17.40;92.00
21570;DHT22;57598;50.888;4.746;2023-04-15T08:00:13;17.80;91.40
21570;DHT22;57598;50.888;4.746;2023-04-15T08:02:42;18.10;90.10
21570;DHT22;57598;50.888;4.746;2023-04-15T08:05:12;18.60;88.70
21570;DHT22;57598;50.888;4.746;2023-04-15T08:07:39;18.90;87.00
21570;DHT22;57598;50.888;4.746;2023-04-15T08:10:07;18.60;84.50
21570;DHT22;57598;50.888;4.746;2023-04-15T08:12:34;18.60;83.10
21570;DHT22;57598;50.888;4.746;2023-04-15T08:15:01;18.90;82.30
21570;DHT22;57598;50.888;4.746;2023-04-15T08:17:28;18.80;82.10
21570;DHT22;57598;50.888;4.746;2023-04-15T08:19:57;18.60;82.40
21570;DHT22;57598;50.888;4.746;2023-04-15T08:22:24;19.00;82.70
21570;DHT22;57598;50.888;4.746;2023-04-15T08:24:52;19.30;83.20
21570;DHT22;57598;50.888;4.746;2023-04-15T08:27:19;19.60;79.80
21570;DHT22;57598;50.888;4.746;2023-04-15T08:29:46;18.90;80.20
21570;DHT22;57598;50.888;4.746;2023-04-15T08:32:13;19.30;80.10
21570;DHT22;57598;50.888;4.746;2023-04-15T08:34:40;19.90;79.20
21570;DHT22;57598;50.888;4.746;2023-04-15T08:37:08;20.40;77.30
21570;DHT22;57598;50.888;4.746;2023-04-15T08:39:35;20.30;76.70
21570;DHT22;57598;50.888;4.746;2023-04-15T08:42:03;20.40;74.30
21570;DHT22;57598;50.888;4.746;2023-04-15T08:44:33;20.30;73.70
21570;DHT22;57598;50.888;4.746;2023-04-15T08:47:01;20.10;73.90
21570;DHT22;57598;50.888;4.746;2023-04-15T08:49:29;20.40;73.50
21570;DHT22;57598;50.888;4.746;2023-04-15T08:51:58;20.50;74.30
21570;DHT22;57598;50.888;4.746;2023-04-15T08:54:26;20.10;74.60
21570;DHT22;57598;50.888;4.746;2023-04-15T08:56:54;20.20;74.10
21570;DHT22;57598;50.888;4.746;2023-04-15T08:59:21;20.70;74.20
21570;DHT22;57598;50.888;4.746;2023-04-15T09:01:48;21.20;72.60
21570;DHT22;57598;50.888;4.746;2023-04-15T09:04:16;21.20;71.20
21570;DHT22;57598;50.888;4.746;2023-04-15T09:06:43;21.70;71.20
21570;DHT22;57598;50.888;4.746;2023-04-15T09:09:12;20.80;70.40
21570;DHT22;57598;50.888;4.746;2023-04-15T09:11:41;21.50;72.30
21570;DHT22;57598;50.888;4.746;2023-04-15T09:14:08;22.10;70.40
21570;DHT22;57598;50.888;4.746;2023-04-15T09:16:56;22.20;69.50
21570;DHT22;57598;50.888;4.746;2023-04-15T09:19:23;22.00;69.70
21570;DHT22;57598;50.888;4.746;2023-04-15T09:21:52;21.50;69.40
21570;DHT22;57598;50.888;4.746;2023-04-15T09:24:19;21.60;67.90
21570;DHT22;57598;50.888;4.746;2023-04-15T09:26:51;21.20;70.00
21570;DHT22;57598;50.888;4.746;2023-04-15T09:29:19;20.90;70.90
21570;DHT22;57598;50.888;4.746;2023-04-15T09:31:46;21.50;70.40
21570;DHT22;57598;50.888;4.746;2023-04-15T09:34:13;21.70;68.80
21570;DHT22;57598;50.888;4.746;2023-04-15T09:36:52;21.60;69.10
21570;DHT22;57598;50.888;4.746;2023-04-15T09:39:20;21.90;68.60
21570;DHT22;57598;50.888;4.746;2023-04-15T09:42:03;21.60;68.70
21570;DHT22;57598;50.888;4.746;2023-04-15T09:44:31;21.90;67.50
21570;DHT22;57598;50.888;4.746;2023-04-15T09:46:58;21.50;68.20
21570;DHT22;57598;50.888;4.746;2023-04-15T09:49:25;21.70;68.10
21570;DHT22;57598;50.888;4.746;2023-04-15T09:51:57;21.90;67.70
21570;DHT22;57598;50.888;4.746;2023-04-15T09:54:32;22.20;67.60
21570;DHT22;57598;50.888;4.746;2023-04-15T09:57:06;22.70;66.30
21570;DHT22;57598;50.888;4.746;2023-04-15T09:59:33;22.70;64.80
21570;DHT22;57598;50.888;4.746;2023-04-15T10:02:03;22.50;65.00
21570;DHT22;57598;50.888;4.746;2023-04-15T10:04:34;22.60;63.60
21570;DHT22;57598;50.888;4.746;2023-04-15T10:07:03;23.10;62.20
21570;DHT22;57598;50.888;4.746;2023-04-15T10:09:31;23.50;63.20
21570;DHT22;57598;50.888;4.746;2023-04-15T10:11:59;23.30;63.40
21570;DHT22;57598;50.888;4.746;2023-04-15T10:14:32;23.30;61.60
21570;DHT22;57598;50.888;4.746;2023-04-15T10:17:01;23.40;58.90
21570;DHT22;57598;50.888;4.746;2023-04-15T10:19:30;23.30;58.90
21570;DHT22;57598;50.888;4.746;2023-04-15T10:21:59;23.60;57.80
21570;DHT22;57598;50.888;4.746;2023-04-15T10:24:26;22.80;58.10
21570;DHT22;57598;50.888;4.746;2023-04-15T10:26:54;23.00;59.80
21570;DHT22;57598;50.888;4.746;2023-04-15T10:29:23;23.60;55.10
21570;DHT22;57598;50.888;4.746;2023-04-15T10:31:53;23.50;52.20
21570;DHT22;57598;50.888;4.746;2023-04-15T10:34:22;23.10;53.00
21570;DHT22;57598;50.888;4.746;2023-04-15T10:36:49;23.50;53.70
21570;DHT22;57598;50.888;4.746;2023-04-15T10:39:39;22.70;54.80
21570;DHT22;57598;50.888;4.746;2023-04-15T10:42:08;23.30;56.20
21570;DHT22;57598;50.888;4.746;2023-04-15T10:44:36;24.10;55.90
21570;DHT22;57598;50.888;4.746;2023-04-15T10:47:13;23.60;52.40
21570;DHT22;57598;50.888;4.746;2023-04-15T10:49:45;23.90;51.60
21570;DHT22;57598;50.888;4.746;2023-04-15T10:52:14;23.90;49.20
21570;DHT22;57598;50.888;4.746;2023-04-15T10:54:41;24.00;48.50
21570;DHT22;57598;50.888;4.746;2023-04-15T10:57:14;23.80;48.50
21570;DHT22;57598;50.888;4.746;2023-04-15T11:00:11;23.70;50.00
21570;DHT22;57598;50.888;4.746;2023-04-15T11:02:51;24.30;51.10
21570;DHT22;57598;50.888;4.746;2023-04-15T11:05:21;24.80;47.10
21570;DHT22;57598;50.888;4.746;2023-04-15T11:07:51;24.60;48.20
21570;DHT22;57598;50.888;4.746;2023-04-15T11:10:52;25.00;48.80
21570;DHT22;57598;50.888;4.746;2023-04-15T11:13:27;24.50;45.20
21570;DHT22;57598;50.888;4.746;2023-04-15T11:15:59;24.90;46.40
21570;DHT22;57598;50.888;4.746;2023-04-15T11:18:30;25.30;46.00
21570;DHT22;57598;50.888;4.746;2023-04-15T11:20:59;25.10;47.30
21570;DHT22;57598;50.888;4.746;2023-04-15T11:23:29;25.10;45.20
21570;DHT22;57598;50.888;4.746;2023-04-15T11:25:58;25.70;44.10
21570;DHT22;57598;50.888;4.746;2023-04-15T11:28:25;26.00;40.60
21570;DHT22;57598;50.888;4.746;2023-04-15T11:30:53;25.00;40.50
21570;DHT22;57598;50.888;4.746;2023-04-15T11:33:22;24.40;42.70
21570;DHT22;57598;50.888;4.746;2023-04-15T11:35:52;24.70;43.80
21570;DHT22;57598;50.888;4.746;2023-04-15T11:38:19;25.30;43.40
21570;DHT22;57598;50.888;4.746;2023-04-15T11:40:46;25.20;43.00
21570;DHT22;57598;50.888;4.746;2023-04-15T11:43:15;25.20;43.70
21570;DHT22;57598;50.888;4.746;2023-04-15T11:45:53;25.10;42.90
21570;DHT22;57598;50.888;4.746;2023-04-15T11:48:23;25.00;43.30
21570;DHT22;57598;50.888;4.746;2023-04-15T11:50:55;25.40;43.00
21570;DHT22;57598;50.888;4.746;2023-04-15T11:53:23;25.30;43.10
21570;DHT22;57598;50.888;4.746;2023-04-15T11:55:51;24.90;43.50
21570;DHT22;57598;50.888;4.746;2023-04-15T11:58:20;25.40;42.40
21570;DHT22;57598;50.888;4.746;2023-04-15T12:00:49;25.50;43.60
21570;DHT22;57598;50.888;4.746;2023-04-15T12:03:22;25.20;42.00
21570;DHT22;57598;50.888;4.746;2023-04-15T12:06:11;26.10;43.50
21570;DHT22;57598;50.888;4.746;2023-04-15T12:08:57;26.00;42.00
21570;DHT22;57598;50.888;4.746;2023-04-15T12:11:44;26.60;41.40
21570;DHT22;57598;50.888;4.746;2023-04-15T12:14:18;26.00;41.10
21570;DHT22;57598;50.888;4.746;2023-04-15T12:16:47;26.00;40.10
21570;DHT22;57598;50.888;4.746;2023-04-15T12:19:16;25.90;40.70
21570;DHT22;57598;50.888;4.746;2023-04-15T12:21:46;26.50;41.40
21570;DHT22;57598;50.888;4.746;2023-04-15T12:24:13;26.20;39.20
21570;DHT22;57598;50.888;4.746;2023-04-15T12:26:45;26.30;39.80
21570;DHT22;57598;50.888;4.746;2023-04-15T12:29:13;26.20;41.00
21570;DHT22;57598;50.888;4.746;2023-04-15T12:31:51;26.20;40.70
21570;DHT22;57598;50.888;4.746;2023-04-15T12:34:25;26.30;41.30
21570;DHT22;57598;50.888;4.746;2023-04-15T12:36:56;26.30;40.80
21570;DHT22;57598;50.888;4.746;2023-04-15T12:39:24;26.00;38.70
21570;DHT22;57598;50.888;4.746;2023-04-15T12:41:51;25.80;36.90
21570;DHT22;57598;50.888;4.746;2023-04-15T12:44:18;25.80;38.90
21570;DHT22;57598;50.888;4.746;2023-04-15T12:46:45;25.20;39.10
21570;DHT22;57598;50.888;4.746;2023-04-15T12:49:12;25.30;40.50
21570;DHT22;57598;50.888;4.746;2023-04-15T12:51:40;25.30;40.70
21570;DHT22;57598;50.888;4.746;2023-04-15T12:54:09;24.70;36.80
21570;DHT22;57598;50.888;4.746;2023-04-15T12:56:36;24.50;37.20
21570;DHT22;57598;50.888;4.746;2023-04-15T12:59:02;24.50;41.00
21570;DHT22;57598;50.888;4.746;2023-04-15T13:01:30;25.10;40.00
21570;DHT22;57598;50.888;4.746;2023-04-15T13:03:57;25.20;42.20
21570;DHT22;57598;50.888;4.746;2023-04-15T13:06:24;24.70;42.60
21570;DHT22;57598;50.888;4.746;2023-04-15T13:08:51;24.50;42.00
21570;DHT22;57598;50.888;4.746;2023-04-15T13:11:21;25.30;40.90
21570;DHT22;57598;50.888;4.746;2023-04-15T13:13:48;25.20;40.70
21570;DHT22;57598;50.888;4.746;2023-04-15T13:16:16;25.40;40.60
21570;DHT22;57598;50.888;4.746;2023-04-15T13:18:43;24.90;41.70
21570;DHT22;57598;50.888;4.746;2023-04-15T13:21:11;25.00;42.90
21570;DHT22;57598;50.888;4.746;2023-04-15T13:23:40;25.40;40.20
21570;DHT22;57598;50.888;4.746;2023-04-15T13:26:07;25.30;38.90
21570;DHT22;57598;50.888;4.746;2023-04-15T13:28:35;24.50;39.30
21570;DHT22;57598;50.888;4.746;2023-04-15T13:31:03;24.50;41.40
21570;DHT22;57598;50.888;4.746;2023-04-15T13:33:30;24.60;42.10
21570;DHT22;57598;50.888;4.746;2023-04-15T13:35:57;24.00;41.70
21570;DHT22;57598;50.888;4.746;2023-04-15T13:38:24;24.30;42.30
21570;DHT22;57598;50.888;4.746;2023-04-15T13:40:51;24.30;41.40
21570;DHT22;57598;50.888;4.746;2023-04-15T13:43:18;24.10;41.60
21570;DHT22;57598;50.888;4.746;2023-04-15T13:45:47;24.00;43.10
21570;DHT22;57598;50.888;4.746;2023-04-15T13:48:14;23.90;42.20
21570;DHT22;57598;50.888;4.746;2023-04-15T13:50:41;23.70;42.30
21570;DHT22;57598;50.888;4.746;2023-04-15T13:53:10;23.40;42.00
21570;DHT22;57598;50.888;4.746;2023-04-15T13:55:36;23.20;44.10
21570;DHT22;57598;50.888;4.746;2023-04-15T13:58:06;23.50;44.20
21570;DHT22;57598;50.888;4.746;2023-04-15T14:00:33;22.90;46.10
21570;DHT22;57598;50.888;4.746;2023-04-15T14:03:01;22.80;46.00
21570;DHT22;57598;50.888;4.746;2023-04-15T14:05:28;22.80;47.20
21570;DHT22;57598;50.888;4.746;2023-04-15T14:07:55;22.70;48.40
21570;DHT22;57598;50.888;4.746;2023-04-15T14:10:22;22.70;50.10
21570;DHT22;57598;50.888;4.746;2023-04-15T14:12:49;23.30;48.90
21570;DHT22;57598;50.888;4.746;2023-04-15T14:15:16;23.70;47.30
21570;DHT22;57598;50.888;4.746;2023-04-15T14:17:43;23.80;47.60
21570;DHT22;57598;50.888;4.746;2023-04-15T14:20:12;23.30;45.90
21570;DHT22;57598;50.888;4.746;2023-04-15T14:22:39;22.90;46.00
21570;DHT22;57598;50.888;4.746;2023-04-15T14:25:07;23.00;46.60
21570;DHT22;57598;50.888;4.746;2023-04-15T14:27:35;22.60;48.10
21570;DHT22;57598;50.888;4.746;2023-04-15T14:30:02;22.60;49.10
21570;DHT22;57598;50.888;4.746;2023-04-15T14:32:29;21.10;50.70
21570;DHT22;57598;50.888;4.746;2023-04-15T14:34:56;21.20;51.30
21570;DHT22;57598;50.888;4.746;2023-04-15T14:37:24;21.80;50.50
21570;DHT22;57598;50.888;4.746;2023-04-15T14:39:51;22.40;50.60
21570;DHT22;57598;50.888;4.746;2023-04-15T14:42:18;22.50;49.20
21570;DHT22;57598;50.888;4.746;2023-04-15T14:44:45;21.90;51.20
21570;DHT22;57598;50.888;4.746;2023-04-15T14:47:12;21.80;53.10
21570;DHT22;57598;50.888;4.746;2023-04-15T14:49:39;22.20;52.80
21570;DHT22;57598;50.888;4.746;2023-04-15T14:52:06;22.60;52.30
21570;DHT22;57598;50.888;4.746;2023-04-15T14:54:35;22.40;52.70
21570;DHT22;57598;50.888;4.746;2023-04-15T14:57:02;22.40;52.70
21570;DHT22;57598;50.888;4.746;2023-04-15T14:59:29;22.30;52.50
21570;DHT22;57598;50.888;4.746;2023-04-15T15:01:56;22.60;52.40
21570;DHT22;57598;50.888;4.746;2023-04-15T15:04:23;22.30;53.20
21570;DHT22;57598;50.888;4.746;2023-04-15T15:06:50;21.50;49.10
21570;DHT22;57598;50.888;4.746;2023-04-15T15:09:17;21.20;50.20
21570;DHT22;57598;50.888;4.746;2023-04-15T15:11:48;21.20;49.80
21570;DHT22;57598;50.888;4.746;2023-04-15T15:14:15;21.30;49.80
21570;DHT22;57598;50.888;4.746;2023-04-15T15:16:42;22.00;49.20
21570;DHT22;57598;50.888;4.746;2023-04-15T15:19:09;22.50;49.90
21570;DHT22;57598;50.888;4.746;2023-04-15T15:21:36;22.30;48.30
21570;DHT22;57598;50.888;4.746;2023-04-15T15:24:04;21.90;48.80
21570;DHT22;57598;50.888;4.746;2023-04-15T15:26:31;22.30;49.60
21570;DHT22;57598;50.888;4.746;2023-04-15T15:28:59;22.60;49.80
21570;DHT22;57598;50.888;4.746;2023-04-15T15:31:26;22.40;50.20
21570;DHT22;57598;50.888;4.746;2023-04-15T15:33:53;22.20;48.70
21570;DHT22;57598;50.888;4.746;2023-04-15T15:36:20;21.70;51.60
21570;DHT22;57598;50.888;4.746;2023-04-15T15:38:47;21.20;52.40
21570;DHT22;57598;50.888;4.746;2023-04-15T15:41:14;20.90;53.20